Dorchester, New Hampshire
Current Conditions -  °F | °C
As of 5:15 AM on Sunday 23 Nov 2014 (Local Time) from K1P1 Reporting Station
Haze Haze  
Wind Chill:   Ceiling: 2900
Heat Index:   Visibility: 4mi
Dew Point:   Wind: 0mph
Humidity: 100%   Direction: NA
Pressure: 30"   Gusts: NA
Location:  43.7922°N, 71.8971°W
Report Text: K1P1 231015Z AUTO 00000KT 4SM BR BKN029 OVC035 02/02 A3000 RMK AO2 T00150015
Loading
Personal Weather Stations






























Interactive Weather Map New forecast layout! Learn more

10-Day Weather Forecast

Advertisements
Track Severe Weather on mobile